createdAt,value
2024-01-11T00:00:10.961Z,80.58
2024-01-11T00:02:33.817Z,80.41
2024-01-11T00:04:56.871Z,80.51
2024-01-11T00:07:19.673Z,80.31
2024-01-11T00:09:45.267Z,80.66
2024-01-11T00:12:08.272Z,80.63
2024-01-11T00:14:30.972Z,80.57
2024-01-11T00:16:53.717Z,80.45
2024-01-11T00:19:16.509Z,80.33
2024-01-11T00:21:41.796Z,80.79
2024-01-11T00:24:05.033Z,80.75
2024-01-11T00:26:27.772Z,80.51
2024-01-11T00:28:50.416Z,80.14
2024-01-11T00:31:13.059Z,80.26
2024-01-11T00:33:35.860Z,80.39
2024-01-11T00:35:59.717Z,81.37
2024-01-11T00:38:22.504Z,81.80
2024-01-11T00:40:45.234Z,82.01
2024-01-11T00:43:07.902Z,81.81
2024-01-11T00:45:30.624Z,81.78
2024-01-11T00:47:53.495Z,81.92
2024-01-11T00:50:16.404Z,81.53
2024-01-11T00:52:39.689Z,81.89
2024-01-11T00:55:02.380Z,81.50
2024-01-11T00:57:26.100Z,81.47
2024-01-11T00:59:49.459Z,81.07
2024-01-11T01:02:12.298Z,81.49
2024-01-11T01:04:39.162Z,80.81
2024-01-11T01:07:01.866Z,80.93
2024-01-11T01:09:24.501Z,80.33
2024-01-11T01:11:47.113Z,80.20
2024-01-11T01:14:09.881Z,81.01
2024-01-11T01:16:32.630Z,81.92
2024-01-11T01:18:55.397Z,82.24
2024-01-11T01:21:18.184Z,82.15
2024-01-11T01:23:41.064Z,82.54
2024-01-11T01:26:06.565Z,82.59
2024-01-11T01:28:30.339Z,82.66
2024-01-11T01:30:53.235Z,82.67
2024-01-11T01:33:16.145Z,82.37
2024-01-11T01:35:39.076Z,82.34
2024-01-11T01:38:01.952Z,81.91
2024-01-11T01:40:24.663Z,81.87
2024-01-11T01:42:47.627Z,82.47
2024-01-11T01:45:10.433Z,82.60
2024-01-11T01:47:33.269Z,82.38
2024-01-11T01:49:57.248Z,82.33
2024-01-11T01:52:21.164Z,82.06
2024-01-11T01:54:44.550Z,82.52
2024-01-11T01:57:10.594Z,82.60
2024-01-11T01:59:34.158Z,82.31
2024-01-11T02:01:57.075Z,82.68
2024-01-11T02:04:19.917Z,82.79
2024-01-11T02:06:44.735Z,82.47
2024-01-11T02:09:09.381Z,82.25
2024-01-11T02:11:32.216Z,81.80
2024-01-11T02:13:55.414Z,81.83
2024-01-11T02:16:18.129Z,82.02
2024-01-11T02:18:41.454Z,82.04
2024-01-11T02:21:07.870Z,82.03
2024-01-11T02:23:31.619Z,82.47
2024-01-11T02:25:54.454Z,82.46
2024-01-11T02:28:17.216Z,82.59
2024-01-11T02:30:40.116Z,82.53
2024-01-11T02:33:03.243Z,83.10
2024-01-11T02:35:27.457Z,83.29
2024-01-11T02:37:50.860Z,83.02
2024-01-11T02:40:15.150Z,83.06
2024-01-11T02:42:37.866Z,82.91
2024-01-11T02:45:00.573Z,82.65
2024-01-11T02:47:23.369Z,82.56
2024-01-11T02:49:46.106Z,82.41
2024-01-11T02:52:08.784Z,82.62
2024-01-11T02:54:31.467Z,82.61
2024-01-11T02:56:54.212Z,82.77
2024-01-11T02:59:16.967Z,82.28
2024-01-11T03:01:39.727Z,82.17
2024-01-11T03:04:02.786Z,82.20
2024-01-11T03:06:26.082Z,81.99
2024-01-11T03:08:50.382Z,81.65
2024-01-11T03:11:13.158Z,81.79
2024-01-11T03:13:35.928Z,81.94
2024-01-11T03:15:58.662Z,82.11
2024-01-11T03:18:21.666Z,82.42
2024-01-11T03:20:44.607Z,82.31
2024-01-11T03:23:07.391Z,82.33
2024-01-11T03:25:32.856Z,82.27
2024-01-11T03:27:55.413Z,82.26
2024-01-11T03:30:18.471Z,82.23
2024-01-11T03:32:41.437Z,82.17
2024-01-11T03:35:04.379Z,82.14
2024-01-11T03:37:27.178Z,82.39
2024-01-11T03:39:49.857Z,82.30
2024-01-11T03:42:12.782Z,82.29
2024-01-11T03:44:37.873Z,81.94
2024-01-11T03:47:00.706Z,82.27
2024-01-11T03:49:23.428Z,82.08
2024-01-11T03:51:46.163Z,82.09
2024-01-11T03:54:09.307Z,82.52
2024-01-11T03:56:32.718Z,82.40
2024-01-11T03:58:55.527Z,82.55
2024-01-11T04:01:18.216Z,82.43
2024-01-11T04:03:43.129Z,82.68
2024-01-11T04:06:09.214Z,82.14
2024-01-11T04:08:33.098Z,82.00
2024-01-11T04:10:56.077Z,82.10
2024-01-11T04:13:18.868Z,81.71
2024-01-11T04:15:41.544Z,81.25
2024-01-11T04:18:04.671Z,81.45
2024-01-11T04:20:27.474Z,81.49
2024-01-11T04:22:50.204Z,81.34
2024-01-11T04:25:12.866Z,81.44
2024-01-11T04:27:35.582Z,81.59
2024-01-11T04:29:58.401Z,82.00
2024-01-11T04:32:21.143Z,82.13
2024-01-11T04:34:43.927Z,82.23
2024-01-11T04:37:07.436Z,82.18
2024-01-11T04:39:30.151Z,82.01
2024-01-11T04:41:52.883Z,83.09
2024-01-11T04:44:15.651Z,83.35
2024-01-11T04:46:38.501Z,83.30
2024-01-11T04:49:01.441Z,83.28
2024-01-11T04:51:24.244Z,82.81
2024-01-11T04:53:47.705Z,82.34
2024-01-11T04:56:12.498Z,82.63
2024-01-11T04:58:41.097Z,82.79
2024-01-11T05:01:03.999Z,83.02
2024-01-11T05:03:26.979Z,82.73
2024-01-11T05:05:49.867Z,82.63
2024-01-11T05:08:12.907Z,82.83
2024-01-11T05:10:37.344Z,82.48
2024-01-11T05:13:00.012Z,82.49
2024-01-11T05:15:22.856Z,82.25
2024-01-11T05:17:45.667Z,82.36
2024-01-11T05:20:09.088Z,82.84
2024-01-11T05:22:31.757Z,82.86
2024-01-11T05:24:54.427Z,82.92
2024-01-11T05:27:17.087Z,82.62
2024-01-11T05:29:39.991Z,82.80
2024-01-11T05:32:02.805Z,82.60
2024-01-11T05:34:25.610Z,82.20
2024-01-11T05:36:48.359Z,82.08
2024-01-11T05:39:11.100Z,81.77
2024-01-11T05:41:33.926Z,82.04
2024-01-11T05:43:56.874Z,82.11
2024-01-11T05:46:19.779Z,82.03
2024-01-11T05:48:43.754Z,82.17
2024-01-11T05:51:06.595Z,82.35
2024-01-11T05:53:29.526Z,82.50
2024-01-11T05:55:55.088Z,82.71
2024-01-11T05:58:18.178Z,82.68
2024-01-11T06:00:41.795Z,82.73
2024-01-11T06:03:05.788Z,82.51
2024-01-11T06:05:28.631Z,82.69
2024-01-11T06:07:51.381Z,82.53
2024-01-11T06:10:15.761Z,82.38
2024-01-11T06:12:38.602Z,82.40
2024-01-11T06:15:01.663Z,82.31
2024-01-11T06:17:24.956Z,82.01
2024-01-11T06:19:47.752Z,82.39
2024-01-11T06:22:10.548Z,82.63
2024-01-11T06:24:33.359Z,82.49
2024-01-11T06:26:56.012Z,81.93
2024-01-11T06:29:18.773Z,82.11
2024-01-11T06:31:42.147Z,82.28
2024-01-11T06:34:05.580Z,82.17
2024-01-11T06:36:29.406Z,81.82
2024-01-11T06:38:52.146Z,81.41
2024-01-11T06:41:15.715Z,81.08
2024-01-11T06:43:38.649Z,80.93
2024-01-11T06:46:07.998Z,81.04
2024-01-11T06:48:31.075Z,80.85
2024-01-11T06:50:53.961Z,80.64
2024-01-11T06:53:17.205Z,80.61
2024-01-11T06:55:42.258Z,80.23
2024-01-11T06:58:05.212Z,79.91
2024-01-11T07:00:31.969Z,79.49
2024-01-11T07:02:56.082Z,79.16
2024-01-11T07:05:19.339Z,79.12
2024-01-11T07:07:42.258Z,78.79
2024-01-11T07:10:06.730Z,78.84
2024-01-11T07:12:29.580Z,78.48
2024-01-11T07:14:54.150Z,78.19
2024-01-11T07:17:17.601Z,78.28
2024-01-11T07:19:42.031Z,78.09
2024-01-11T07:22:07.161Z,78.24
2024-01-11T07:24:38.281Z,78.38
2024-01-11T07:27:00.996Z,77.60
2024-01-11T07:29:24.204Z,76.98
2024-01-11T07:31:47.041Z,76.70
2024-01-11T07:34:10.100Z,76.34
2024-01-11T07:36:33.006Z,76.05
2024-01-11T07:38:55.954Z,75.50
2024-01-11T07:41:19.220Z,74.62
2024-01-11T07:43:49.645Z,74.08
2024-01-11T07:46:17.506Z,73.76
2024-01-11T07:48:40.380Z,74.11
2024-01-11T07:51:03.824Z,74.77
2024-01-11T07:53:27.323Z,74.85
2024-01-11T07:55:51.097Z,75.12
2024-01-11T07:58:14.034Z,74.92
2024-01-11T08:00:37.171Z,75.61
2024-01-11T08:03:00.604Z,76.10
2024-01-11T08:05:23.586Z,76.22
2024-01-11T08:07:46.678Z,75.68
2024-01-11T08:10:13.103Z,76.06
2024-01-11T08:12:36.443Z,76.35
2024-01-11T08:14:59.233Z,76.47
2024-01-11T08:17:22.011Z,76.77
2024-01-11T08:19:44.741Z,76.53
2024-01-11T08:22:07.803Z,76.79
2024-01-11T08:24:30.632Z,76.32
2024-01-11T08:26:54.564Z,75.95
2024-01-11T08:29:20.309Z,75.99
2024-01-11T08:31:44.985Z,76.01
2024-01-11T08:34:08.011Z,75.82
2024-01-11T08:36:36.710Z,75.67
2024-01-11T08:38:59.483Z,76.01
2024-01-11T08:41:22.400Z,76.19
2024-01-11T08:43:45.390Z,76.30
2024-01-11T08:46:08.369Z,76.40
2024-01-11T08:48:31.531Z,76.07
2024-01-11T08:50:54.725Z,76.39
2024-01-11T08:53:18.768Z,76.49
2024-01-11T08:55:43.398Z,76.51
2024-01-11T08:58:08.325Z,76.57
2024-01-11T09:00:32.357Z,76.53
2024-01-11T09:02:55.360Z,77.01
2024-01-11T09:05:18.729Z,76.21
2024-01-11T09:07:41.689Z,76.30
2024-01-11T09:10:05.598Z,76.58
2024-01-11T09:12:30.727Z,77.02
2024-01-11T09:14:54.273Z,76.95
2024-01-11T09:17:17.666Z,77.30
2024-01-11T09:19:41.474Z,77.21
2024-01-11T09:22:04.964Z,76.72
2024-01-11T09:24:31.686Z,77.07
2024-01-11T09:26:57.317Z,76.92
2024-01-11T09:29:20.529Z,76.53
2024-01-11T09:31:43.864Z,76.40
2024-01-11T09:34:07.103Z,76.10
2024-01-11T09:36:29.999Z,75.84
2024-01-11T09:38:53.120Z,75.75
2024-01-11T09:41:16.465Z,75.14
2024-01-11T09:43:42.125Z,74.93
2024-01-11T09:46:06.928Z,74.99
2024-01-11T09:48:31.341Z,74.61
2024-01-11T09:50:55.501Z,74.49
2024-01-11T09:53:20.122Z,73.75
2024-01-11T09:55:43.216Z,73.56
2024-01-11T09:58:08.795Z,74.52
2024-01-11T10:00:34.010Z,74.63
2024-01-11T10:02:57.600Z,73.46
2024-01-11T10:05:20.908Z,73.25
2024-01-11T10:07:43.915Z,72.05
2024-01-11T10:10:08.459Z,72.12
2024-01-11T10:12:31.829Z,71.45
2024-01-11T10:14:55.455Z,71.68
2024-01-11T10:17:20.642Z,71.37
2024-01-11T10:19:46.089Z,71.65
2024-01-11T10:22:09.573Z,71.47
2024-01-11T10:24:32.417Z,71.22
2024-01-11T10:26:59.940Z,70.61
2024-01-11T10:29:23.075Z,69.75
2024-01-11T10:31:46.320Z,68.88
2024-01-11T10:34:09.893Z,69.07
2024-01-11T10:36:33.316Z,68.90
2024-01-11T10:38:57.648Z,68.40
2024-01-11T10:41:21.696Z,68.43
2024-01-11T10:43:45.220Z,67.56
2024-01-11T10:46:12.084Z,66.52
2024-01-11T10:48:45.328Z,66.36
2024-01-11T10:51:16.164Z,66.07
2024-01-11T10:53:50.042Z,65.78
2024-01-11T10:56:14.534Z,65.38
2024-01-11T10:58:38.083Z,65.29
2024-01-11T11:01:02.065Z,65.40
2024-01-11T11:03:29.573Z,65.85
2024-01-11T11:05:56.857Z,64.83
2024-01-11T11:08:21.183Z,64.84
2024-01-11T11:10:45.809Z,64.60
2024-01-11T11:13:10.990Z,65.13
2024-01-11T11:15:34.570Z,65.60
2024-01-11T11:17:59.378Z,64.79
2024-01-11T11:20:22.403Z,65.04
2024-01-11T11:23:04.105Z,65.04
2024-01-11T11:25:28.003Z,63.92
2024-01-11T11:27:51.156Z,63.39
2024-01-11T11:30:15.943Z,63.68
2024-01-11T11:32:45.359Z,64.04
2024-01-11T11:35:09.905Z,63.53
2024-01-11T11:37:35.709Z,63.63
2024-01-11T11:40:01.936Z,63.36
2024-01-11T11:42:27.133Z,62.96
2024-01-11T11:44:53.573Z,63.06
2024-01-11T11:47:24.838Z,62.84
2024-01-11T11:50:07.777Z,62.64
2024-01-11T11:52:30.967Z,61.25
2024-01-11T11:54:54.488Z,59.58
2024-01-11T11:57:18.175Z,59.29
2024-01-11T11:59:41.317Z,60.29
2024-01-11T12:02:04.509Z,61.29
2024-01-11T12:04:27.513Z,60.53
2024-01-11T12:06:51.015Z,61.09
2024-01-11T12:09:22.433Z,61.44
2024-01-11T12:11:51.862Z,60.71
2024-01-11T12:14:18.211Z,60.41
2024-01-11T12:16:42.036Z,59.37
2024-01-11T12:19:07.533Z,59.66
2024-01-11T12:21:30.423Z,59.23
2024-01-11T12:23:53.358Z,59.37
2024-01-11T12:26:16.625Z,59.00
2024-01-11T12:28:40.877Z,58.24
2024-01-11T12:33:29.612Z,59.09
2024-01-11T12:35:53.128Z,58.71
2024-01-11T12:38:16.798Z,58.17
2024-01-11T12:40:40.008Z,57.92
2024-01-11T12:43:02.946Z,57.63
2024-01-11T12:45:30.980Z,57.30
2024-01-11T12:47:56.284Z,57.27
2024-01-11T12:50:19.595Z,56.28
2024-01-11T12:52:43.326Z,55.70
2024-01-11T12:55:09.831Z,54.63
2024-01-11T12:57:34.764Z,54.24
2024-01-11T13:00:13.711Z,53.49
2024-01-11T13:02:38.178Z,52.87
2024-01-11T13:05:03.257Z,52.97
2024-01-11T13:07:26.481Z,53.19
2024-01-11T13:09:49.688Z,53.71
2024-01-11T13:12:14.455Z,53.24
2024-01-11T13:14:40.901Z,53.24
2024-01-11T13:17:04.213Z,54.03
2024-01-11T13:19:28.001Z,55.21
2024-01-11T13:21:50.981Z,56.22
2024-01-11T13:24:20.159Z,56.41
2024-01-11T13:26:43.432Z,55.65
2024-01-11T13:29:06.693Z,56.32
2024-01-11T13:31:29.648Z,56.53
2024-01-11T13:33:53.991Z,57.20
2024-01-11T13:36:19.128Z,57.44
2024-01-11T13:38:42.462Z,58.18
2024-01-11T13:41:06.698Z,58.26
2024-01-11T13:43:29.636Z,58.61
2024-01-11T13:45:52.617Z,58.86
2024-01-11T13:48:17.176Z,59.09
2024-01-11T13:50:40.392Z,59.07
2024-01-11T13:53:03.687Z,58.55
2024-01-11T13:55:26.601Z,58.99
2024-01-11T13:57:53.686Z,59.21
2024-01-11T14:00:19.322Z,59.45
2024-01-11T14:02:42.454Z,59.79
2024-01-11T14:05:07.462Z,60.02
2024-01-11T14:07:31.674Z,59.21
2024-01-11T14:09:54.758Z,59.80
2024-01-11T14:12:18.234Z,59.48
2024-01-11T14:14:41.219Z,59.92
2024-01-11T14:17:04.495Z,60.08
2024-01-11T14:19:29.501Z,60.15
2024-01-11T14:21:52.617Z,60.88
2024-01-11T14:24:26.147Z,61.55
2024-01-11T14:26:53.458Z,61.99
2024-01-11T14:29:17.052Z,62.18
2024-01-11T14:31:40.449Z,62.67
2024-01-11T14:34:03.695Z,63.23
2024-01-11T14:36:27.000Z,63.57
2024-01-11T14:38:49.710Z,63.99
2024-01-11T14:41:12.605Z,64.15
2024-01-11T14:43:35.366Z,64.24
2024-01-11T14:45:58.152Z,64.36
2024-01-11T14:48:21.669Z,64.57
2024-01-11T14:50:45.351Z,64.57
2024-01-11T14:53:08.186Z,63.98
2024-01-11T14:55:30.965Z,61.97
2024-01-11T14:57:55.260Z,61.51
2024-01-11T15:00:20.683Z,61.58
2024-01-11T15:02:45.925Z,61.87
2024-01-11T15:05:09.151Z,61.81
2024-01-11T15:07:31.894Z,62.20
2024-01-11T15:09:54.651Z,62.38
2024-01-11T15:12:17.909Z,62.71
2024-01-11T15:14:40.915Z,62.42
2024-01-11T15:17:04.861Z,62.03
2024-01-11T15:19:28.035Z,62.45
2024-01-11T15:21:52.649Z,62.76
2024-01-11T15:24:20.722Z,62.85
2024-01-11T15:26:44.102Z,63.28
2024-01-11T15:29:07.198Z,63.52
2024-01-11T15:31:30.286Z,63.80
2024-01-11T15:33:53.720Z,63.86
2024-01-11T15:36:17.590Z,64.14
2024-01-11T15:38:40.938Z,64.52
2024-01-11T15:41:04.435Z,64.42
2024-01-11T15:43:27.910Z,64.47
2024-01-11T15:45:51.017Z,64.59
2024-01-11T15:48:16.155Z,64.45
2024-01-11T15:50:39.367Z,64.52
2024-01-11T15:53:02.322Z,64.77
2024-01-11T15:55:25.092Z,65.06
2024-01-11T15:57:48.187Z,65.55
2024-01-11T16:00:13.015Z,66.02
2024-01-11T16:02:36.009Z,66.89
2024-01-11T16:04:58.822Z,67.54
2024-01-11T16:07:22.084Z,68.36
2024-01-11T16:09:45.750Z,68.65
2024-01-11T16:12:12.804Z,68.42
2024-01-11T16:14:38.726Z,68.24
2024-01-11T16:17:01.449Z,68.87
2024-01-11T16:19:24.318Z,69.05
2024-01-11T16:21:48.180Z,69.05
2024-01-11T16:24:13.859Z,69.57
2024-01-11T16:26:57.291Z,69.70
2024-01-11T16:29:20.057Z,70.11
2024-01-11T16:31:42.804Z,70.85
2024-01-11T16:34:05.595Z,71.38
2024-01-11T16:36:28.567Z,71.96
2024-01-11T16:38:51.831Z,72.38
2024-01-11T16:41:15.155Z,73.05
2024-01-11T16:43:38.000Z,73.73
2024-01-11T16:46:00.673Z,73.61
2024-01-11T16:48:23.710Z,74.00
2024-01-11T16:50:48.339Z,74.08
2024-01-11T16:53:11.190Z,74.47
2024-01-11T16:55:34.054Z,74.81
2024-01-11T16:57:58.365Z,74.92
2024-01-11T17:00:23.111Z,75.10
2024-01-11T17:02:46.896Z,74.65
2024-01-11T17:05:10.121Z,74.49
2024-01-11T17:07:33.119Z,74.36
2024-01-11T17:09:56.256Z,74.35
2024-01-11T17:12:19.768Z,74.71
2024-01-11T17:14:43.648Z,75.03
2024-01-11T17:17:08.314Z,75.52
2024-01-11T17:19:31.114Z,75.87
2024-01-11T17:21:53.744Z,76.10
2024-01-11T17:24:16.509Z,76.03
2024-01-11T17:26:39.298Z,75.81
2024-01-11T17:29:01.950Z,76.23
2024-01-11T17:31:24.978Z,75.57
2024-01-11T17:33:48.517Z,74.98
2024-01-11T17:36:18.480Z,74.72
2024-01-11T17:38:41.735Z,74.82
2024-01-11T17:41:04.965Z,74.62
2024-01-11T17:43:29.378Z,74.71
2024-01-11T17:45:52.541Z,75.06
2024-01-11T17:48:20.604Z,75.18
2024-01-11T17:50:43.892Z,74.92
2024-01-11T17:53:07.162Z,74.67
2024-01-11T17:55:30.410Z,74.65
2024-01-11T17:57:53.088Z,74.45
2024-01-11T18:00:17.120Z,74.31
2024-01-11T18:02:40.533Z,74.12
2024-01-11T18:05:03.874Z,74.50
2024-01-11T18:07:28.315Z,74.56
2024-01-11T18:09:51.177Z,74.65
2024-01-11T18:12:14.812Z,74.66
2024-01-11T18:14:58.638Z,74.70
2024-01-11T18:17:22.336Z,74.35
2024-01-11T18:19:45.209Z,74.62
2024-01-11T18:22:09.704Z,74.82
2024-01-11T18:24:33.421Z,74.80
2024-01-11T18:26:56.549Z,74.89
2024-01-11T18:29:19.343Z,74.96
2024-01-11T18:31:42.409Z,74.70
2024-01-11T18:34:05.305Z,74.34
2024-01-11T18:36:28.510Z,74.29
2024-01-11T18:38:54.116Z,74.21
2024-01-11T18:41:18.979Z,73.67
2024-01-11T18:43:41.773Z,73.30
2024-01-11T18:46:04.689Z,73.33
2024-01-11T18:48:28.077Z,72.99
2024-01-11T18:50:51.305Z,73.00
2024-01-11T18:53:14.434Z,73.17
2024-01-11T18:55:37.448Z,72.95
2024-01-11T18:58:00.368Z,72.75
2024-01-11T19:00:23.540Z,72.59
2024-01-11T19:02:49.464Z,72.41
2024-01-11T19:05:14.426Z,72.21
2024-01-11T19:07:39.208Z,72.19
2024-01-11T19:10:02.271Z,72.52
2024-01-11T19:12:25.772Z,72.78
2024-01-11T19:14:50.882Z,72.88
2024-01-11T19:17:15.180Z,72.66
2024-01-11T19:19:38.382Z,72.52
2024-01-11T19:22:01.704Z,72.33
2024-01-11T19:24:25.043Z,71.92
2024-01-11T19:26:51.441Z,71.95
2024-01-11T19:29:16.009Z,72.19
2024-01-11T19:31:38.703Z,72.15
2024-01-11T19:34:01.493Z,71.73
2024-01-11T19:36:26.102Z,71.82
2024-01-11T19:38:49.121Z,71.27
2024-01-11T19:41:12.232Z,71.20
2024-01-11T19:43:36.533Z,70.75
2024-01-11T19:45:59.954Z,70.19
2024-01-11T19:48:22.853Z,69.83
2024-01-11T19:50:46.081Z,69.36
2024-01-11T19:53:10.027Z,69.13
2024-01-11T19:55:34.011Z,69.31
2024-01-11T19:57:57.747Z,69.24
2024-01-11T20:00:20.831Z,68.91
2024-01-11T20:02:43.709Z,69.09
2024-01-11T20:05:07.281Z,69.28
2024-01-11T20:07:30.072Z,68.94
2024-01-11T20:09:52.754Z,69.21
2024-01-11T20:12:17.313Z,69.43
2024-01-11T20:14:41.145Z,69.47
2024-01-11T20:17:04.621Z,69.24
2024-01-11T20:19:27.383Z,69.00
2024-01-11T20:21:50.940Z,69.68
2024-01-11T20:24:14.276Z,69.38
2024-01-11T20:26:37.573Z,69.51
2024-01-11T20:29:00.445Z,69.43
2024-01-11T20:31:23.149Z,69.02
2024-01-11T20:33:45.976Z,68.97
2024-01-11T20:36:11.898Z,69.00
2024-01-11T20:38:35.383Z,69.02
2024-01-11T20:40:58.051Z,68.48
2024-01-11T20:43:20.950Z,68.56
2024-01-11T20:45:44.762Z,68.20
2024-01-11T20:48:11.090Z,68.16
2024-01-11T20:50:34.819Z,68.26
2024-01-11T20:52:58.010Z,67.66
2024-01-11T20:55:21.045Z,67.73
2024-01-11T20:57:44.104Z,67.34
2024-01-11T21:00:11.835Z,66.57
2024-01-11T21:02:34.891Z,66.85
2024-01-11T21:04:57.647Z,66.62
2024-01-11T21:07:20.362Z,66.89
2024-01-11T21:09:43.076Z,66.89
2024-01-11T21:12:06.883Z,66.29
2024-01-11T21:14:29.775Z,66.26
2024-01-11T21:16:52.611Z,66.35
2024-01-11T21:19:15.340Z,66.65
2024-01-11T21:21:41.519Z,66.57
2024-01-11T21:24:05.741Z,66.08
2024-01-11T21:26:29.183Z,65.69
2024-01-11T21:28:54.619Z,65.80
2024-01-11T21:31:17.826Z,65.92
2024-01-11T21:33:44.592Z,66.07
2024-01-11T21:36:07.610Z,65.56
2024-01-11T21:38:30.376Z,65.60
2024-01-11T21:40:53.080Z,65.70
2024-01-11T21:43:15.713Z,66.09
2024-01-11T21:45:38.444Z,66.22
2024-01-11T21:48:01.237Z,66.25
2024-01-11T21:50:24.039Z,65.98
2024-01-11T21:52:47.513Z,65.65
2024-01-11T21:55:10.437Z,65.98
2024-01-11T21:57:33.169Z,65.93
2024-01-11T21:59:55.911Z,66.16
2024-01-11T22:02:18.647Z,65.34
2024-01-11T22:04:41.400Z,65.80
2024-01-11T22:07:04.587Z,65.70
2024-01-11T22:09:27.529Z,65.39
2024-01-11T22:11:50.238Z,65.59
2024-01-11T22:14:13.130Z,65.45
2024-01-11T22:16:35.893Z,65.08
2024-01-11T22:18:58.951Z,64.72
2024-01-11T22:21:21.739Z,63.80
2024-01-11T22:23:44.531Z,63.19
2024-01-11T22:26:07.240Z,63.85
2024-01-11T22:28:29.883Z,64.12
2024-01-11T22:30:52.714Z,63.62
2024-01-11T22:33:15.695Z,63.60
2024-01-11T22:35:38.618Z,64.10
2024-01-11T22:38:01.359Z,64.23
2024-01-11T22:40:24.123Z,64.56
2024-01-11T22:42:46.816Z,64.83
2024-01-11T22:45:09.867Z,64.63
2024-01-11T22:47:32.730Z,64.83
2024-01-11T22:49:55.636Z,65.23
2024-01-11T22:52:19.180Z,65.63
2024-01-11T22:54:41.965Z,66.12
2024-01-11T22:57:05.017Z,66.70
2024-01-11T22:59:28.193Z,67.81
2024-01-11T23:01:51.312Z,69.06
2024-01-11T23:04:14.046Z,69.57
2024-01-11T23:06:36.873Z,70.21
2024-01-11T23:08:59.807Z,70.46
2024-01-11T23:11:22.627Z,70.40
2024-01-11T23:13:45.268Z,70.68
2024-01-11T23:16:07.985Z,70.75
2024-01-11T23:18:30.960Z,70.58
2024-01-11T23:20:53.811Z,70.68
2024-01-11T23:23:16.603Z,70.98
2024-01-11T23:25:39.369Z,71.09
2024-01-11T23:28:03.827Z,71.13
2024-01-11T23:30:27.096Z,71.38
2024-01-11T23:32:50.775Z,71.45
2024-01-11T23:35:13.506Z,71.51
2024-01-11T23:37:37.430Z,71.49
2024-01-11T23:40:00.270Z,71.43
2024-01-11T23:42:23.100Z,71.72
2024-01-11T23:44:46.071Z,71.96
2024-01-11T23:47:09.285Z,72.45
2024-01-11T23:49:31.892Z,72.57
2024-01-11T23:51:54.641Z,73.03
2024-01-11T23:54:17.827Z,72.93
2024-01-11T23:56:43.111Z,73.43
2024-01-11T23:59:05.863Z,73.87
